createdAt,value
2023-01-19T00:02:12.970Z,15.43
2023-01-19T00:05:17.961Z,15.00
2023-01-19T00:08:21.760Z,22.52
2023-01-19T00:11:26.153Z,20.30
2023-01-19T00:14:29.870Z,17.80
2023-01-19T00:17:34.760Z,14.70
2023-01-19T00:20:38.561Z,9.55
2023-01-19T00:23:44.749Z,19.67
2023-01-19T00:26:48.665Z,13.82
2023-01-19T00:29:53.109Z,12.33
2023-01-19T00:32:57.327Z,16.43
2023-01-19T00:36:01.522Z,12.60
2023-01-19T00:39:05.332Z,15.63
2023-01-19T00:42:31.384Z,20.25
2023-01-19T00:45:35.350Z,17.23
2023-01-19T00:48:40.300Z,18.70
2023-01-19T00:51:44.399Z,21.98
2023-01-19T00:54:48.630Z,14.73
2023-01-19T00:57:52.504Z,14.80
2023-01-19T01:00:58.688Z,27.60
2023-01-19T01:04:02.511Z,12.68
2023-01-19T01:07:07.064Z,22.33
2023-01-19T01:10:13.517Z,77.57
2023-01-19T01:13:23.768Z,63.35
2023-01-19T01:16:30.080Z,214.60
2023-01-19T01:19:34.389Z,195.70
2023-01-19T01:22:39.870Z,99.65
2023-01-19T01:25:44.464Z,104.15
2023-01-19T01:28:48.256Z,42.20
2023-01-19T01:31:52.626Z,44.30
2023-01-19T01:34:56.385Z,14.88
2023-01-19T01:38:01.682Z,22.85
2023-01-19T01:41:05.709Z,16.65
2023-01-19T01:44:50.863Z,10.15
2023-01-19T01:47:59.614Z,21.58
2023-01-19T01:51:25.832Z,19.55
2023-01-19T01:54:34.021Z,12.82
2023-01-19T01:57:43.081Z,17.83
2023-01-19T02:01:05.404Z,23.65
2023-01-19T02:04:09.996Z,12.85
2023-01-19T02:07:44.811Z,13.45
2023-01-19T02:11:08.216Z,15.20
2023-01-19T02:14:12.241Z,13.70
2023-01-19T02:17:16.680Z,10.95
2023-01-19T02:20:43.801Z,21.55
2023-01-19T02:23:51.465Z,22.23
2023-01-19T02:26:56.851Z,28.90
2023-01-19T02:30:04.543Z,31.63
2023-01-19T02:33:08.616Z,15.82
2023-01-19T02:36:15.138Z,22.08
2023-01-19T02:39:22.654Z,18.58
2023-01-19T02:42:39.058Z,16.45
2023-01-19T02:45:44.047Z,8.95
2023-01-19T02:48:48.110Z,80.57
2023-01-19T02:51:52.323Z,279.87
2023-01-19T02:55:14.299Z,260.70
2023-01-19T02:58:50.056Z,118.82
2023-01-19T03:02:35.502Z,31.90
2023-01-19T03:05:55.574Z,21.67
2023-01-19T03:09:33.350Z,9.30
2023-01-19T03:12:50.021Z,22.35
2023-01-19T03:16:00.271Z,12.55
2023-01-19T03:19:10.791Z,15.45
2023-01-19T03:22:20.417Z,15.27
2023-01-19T03:25:26.249Z,29.75
2023-01-19T03:28:31.859Z,15.02
2023-01-19T03:31:39.165Z,19.77
2023-01-19T03:37:51.864Z,10.57
2023-01-19T03:41:03.620Z,13.05
2023-01-19T03:44:09.722Z,14.90
2023-01-19T03:47:15.931Z,9.55
2023-01-19T03:50:27.899Z,13.80
2023-01-19T03:53:32.433Z,11.88
2023-01-19T03:56:36.788Z,12.52
2023-01-19T03:59:40.684Z,11.75
2023-01-19T04:02:44.950Z,12.43
2023-01-19T04:05:48.879Z,20.20
2023-01-19T04:08:53.398Z,27.85
2023-01-19T04:11:58.125Z,43.35
2023-01-19T04:15:02.184Z,44.92
2023-01-19T04:18:08.193Z,48.33
2023-01-19T04:24:15.878Z,125.50
2023-01-19T04:27:20.745Z,68.68
2023-01-19T04:30:25.173Z,68.72
2023-01-19T04:33:29.562Z,42.38
2023-01-19T04:36:33.530Z,14.63
2023-01-19T04:39:37.723Z,27.17
2023-01-19T04:42:46.059Z,18.77
2023-01-19T04:45:50.776Z,13.90
2023-01-19T04:48:54.869Z,17.53
2023-01-19T04:51:59.518Z,15.40
2023-01-19T04:55:04.859Z,13.65
2023-01-19T04:58:09.554Z,13.55
2023-01-19T05:01:13.583Z,16.73
2023-01-19T05:04:18.031Z,41.22
2023-01-19T05:07:22.630Z,113.78
2023-01-19T05:10:27.117Z,82.78
2023-01-19T05:13:31.162Z,30.45
2023-01-19T05:16:35.425Z,166.88
2023-01-19T05:19:39.841Z,36.03
2023-01-19T05:22:44.230Z,46.95
2023-01-19T05:25:48.145Z,34.92
2023-01-19T05:28:52.171Z,37.25
2023-01-19T05:31:56.139Z,31.90
2023-01-19T05:35:00.380Z,20.02
2023-01-19T05:38:04.682Z,21.50
2023-01-19T05:41:08.768Z,33.20
2023-01-19T05:44:13.778Z,21.85
2023-01-19T05:47:19.086Z,23.42
2023-01-19T05:50:22.983Z,52.15
2023-01-19T05:53:27.801Z,35.53
2023-01-19T05:56:31.990Z,21.15
2023-01-19T05:59:36.456Z,34.20
2023-01-19T06:02:40.688Z,28.58
2023-01-19T06:05:44.778Z,34.63
2023-01-19T06:08:48.797Z,56.00
2023-01-19T06:11:54.895Z,16.50
2023-01-19T06:14:58.807Z,19.95
2023-01-19T06:18:03.160Z,88.38
2023-01-19T06:21:09.343Z,18.40
2023-01-19T06:24:14.522Z,333.98
2023-01-19T06:27:18.606Z,16.15
2023-01-19T06:30:23.075Z,14.70
2023-01-19T06:33:29.325Z,15.95
2023-01-19T06:36:33.349Z,17.73
2023-01-19T06:39:41.971Z,24.92
2023-01-19T06:42:46.228Z,15.20
2023-01-19T06:45:51.180Z,22.48
2023-01-19T06:48:55.575Z,16.42
2023-01-19T06:51:59.523Z,14.80
2023-01-19T06:55:03.651Z,13.48
2023-01-19T06:58:08.129Z,18.67
2023-01-19T07:01:13.378Z,13.35
2023-01-19T07:04:17.383Z,20.63
2023-01-19T07:07:21.791Z,22.42
2023-01-19T07:10:26.213Z,27.67
2023-01-19T07:13:52.383Z,22.73
2023-01-19T07:16:56.328Z,33.05
2023-01-19T07:20:00.337Z,25.33
2023-01-19T07:23:05.564Z,18.10
2023-01-19T07:26:11.461Z,22.70
2023-01-19T07:32:19.322Z,34.80
2023-01-19T07:35:23.258Z,30.60
2023-01-19T07:38:27.354Z,20.55
2023-01-19T07:41:31.317Z,16.70
2023-01-19T07:44:35.582Z,32.78
2023-01-19T07:47:39.512Z,28.33
2023-01-19T07:50:43.714Z,44.65
2023-01-19T07:53:48.058Z,55.10
2023-01-19T07:56:55.937Z,63.75
2023-01-19T07:59:59.906Z,76.75
2023-01-19T08:03:06.220Z,105.05
2023-01-19T08:06:23.390Z,75.15
2023-01-19T08:09:27.617Z,96.07
2023-01-19T08:12:31.560Z,81.65
2023-01-19T08:15:35.764Z,106.07
2023-01-19T08:18:39.772Z,89.65
2023-01-19T08:21:43.898Z,118.65
2023-01-19T08:24:50.289Z,198.07
2023-01-19T08:27:57.767Z,101.07
2023-01-19T08:31:11.150Z,265.90
2023-01-19T08:34:23.030Z,431.38
2023-01-19T08:37:27.004Z,369.75
2023-01-19T08:40:36.205Z,327.02
2023-01-19T08:43:41.760Z,363.08
2023-01-19T08:46:46.046Z,265.25
2023-01-19T08:49:50.058Z,312.80
2023-01-19T08:52:56.687Z,497.42
2023-01-19T08:56:03.470Z,463.42
2023-01-19T08:59:10.825Z,499.02
2023-01-19T09:02:15.957Z,402.67
2023-01-19T09:05:20.509Z,283.15
2023-01-19T09:08:24.429Z,187.38
2023-01-19T09:11:28.609Z,210.20
2023-01-19T09:14:32.644Z,185.02
2023-01-19T09:17:39.495Z,190.27
2023-01-19T09:20:47.737Z,223.27
2023-01-19T09:23:52.024Z,199.63
2023-01-19T09:26:56.299Z,141.75
2023-01-19T09:30:00.414Z,192.68
2023-01-19T09:33:11.707Z,113.82
2023-01-19T09:36:16.189Z,136.75
2023-01-19T09:39:20.233Z,181.70
2023-01-19T09:43:12.955Z,180.07
2023-01-19T09:46:23.761Z,213.20
2023-01-19T09:49:35.653Z,205.15
2023-01-19T09:52:45.049Z,209.90
2023-01-19T09:55:50.633Z,249.90
2023-01-19T09:58:58.252Z,220.93
2023-01-19T10:02:18.831Z,192.95
2023-01-19T10:05:32.735Z,199.32
2023-01-19T10:08:47.967Z,162.50
2023-01-19T10:12:04.505Z,111.18
2023-01-19T10:15:36.125Z,116.47
2023-01-19T10:18:50.083Z,132.35
2023-01-19T10:21:56.268Z,122.85
2023-01-19T10:25:08.076Z,169.25
2023-01-19T10:28:14.597Z,235.13
2023-01-19T10:31:23.738Z,212.82
2023-01-19T10:34:29.056Z,191.63
2023-01-19T10:37:40.185Z,167.13
2023-01-19T10:41:05.260Z,220.15
2023-01-19T10:44:11.701Z,235.70
2023-01-19T10:47:21.154Z,317.05
2023-01-19T10:50:29.170Z,204.73
2023-01-19T10:53:33.633Z,210.00
2023-01-19T10:56:39.606Z,184.77
2023-01-19T10:59:46.461Z,204.77
2023-01-19T11:02:53.907Z,151.85
2023-01-19T11:06:21.817Z,146.35
2023-01-19T11:09:26.361Z,121.45
2023-01-19T11:12:31.731Z,158.48
2023-01-19T11:15:49.873Z,150.63
2023-01-19T11:18:57.981Z,198.38
2023-01-19T11:22:34.868Z,192.18
2023-01-19T11:25:39.590Z,161.02
2023-01-19T11:28:52.224Z,252.70
2023-01-19T11:32:09.996Z,380.77
2023-01-19T11:35:42.460Z,456.77
2023-01-19T11:38:51.171Z,555.17
2023-01-19T11:42:07.325Z,606.78
2023-01-19T11:45:29.335Z,589.45
2023-01-19T11:48:49.577Z,397.55
2023-01-19T11:52:03.952Z,474.20
2023-01-19T11:55:26.207Z,474.50
2023-01-19T11:58:32.312Z,450.92
2023-01-19T12:01:42.198Z,454.17
2023-01-19T12:04:48.759Z,469.67
2023-01-19T12:07:55.049Z,468.90
2023-01-19T12:11:03.446Z,461.00
2023-01-19T12:14:17.711Z,355.05
2023-01-19T12:17:31.538Z,392.83
2023-01-19T12:20:45.740Z,401.75
2023-01-19T12:24:04.556Z,325.33
2023-01-19T12:27:40.376Z,319.73
2023-01-19T12:30:47.015Z,347.70
2023-01-19T12:33:52.064Z,348.77
2023-01-19T12:40:21.563Z,350.60
2023-01-19T12:43:26.526Z,308.33
2023-01-19T12:46:33.764Z,286.97
2023-01-19T12:49:52.024Z,233.93
2023-01-19T12:53:01.043Z,189.38
2023-01-19T12:56:10.880Z,346.30
2023-01-19T12:59:29.885Z,132.35
2023-01-19T13:02:47.127Z,76.47
2023-01-19T13:05:59.495Z,45.80
2023-01-19T13:09:03.795Z,61.55
2023-01-19T13:12:15.323Z,48.77
2023-01-19T13:15:37.740Z,151.00
2023-01-19T13:18:42.719Z,100.80
2023-01-19T13:21:50.165Z,131.43
2023-01-19T13:25:11.612Z,121.60
2023-01-19T13:28:19.763Z,107.13
2023-01-19T13:31:26.487Z,140.55
2023-01-19T13:34:43.694Z,108.55
2023-01-19T13:37:48.714Z,64.85
2023-01-19T13:40:55.975Z,65.55
2023-01-19T13:44:05.073Z,86.78
2023-01-19T13:47:20.218Z,88.07
2023-01-19T13:50:27.764Z,118.20
2023-01-19T13:53:32.208Z,101.13
2023-01-19T13:56:38.598Z,94.75
2023-01-19T13:59:42.831Z,76.37
2023-01-19T14:02:57.899Z,75.05
2023-01-19T14:06:02.157Z,107.78
2023-01-19T14:09:20.645Z,106.07
2023-01-19T14:12:26.446Z,95.43
2023-01-19T14:15:34.924Z,96.95
2023-01-19T14:18:38.967Z,122.53
2023-01-19T14:21:43.573Z,156.77
2023-01-19T14:24:47.450Z,168.73
2023-01-19T14:27:51.864Z,257.10
2023-01-19T14:30:59.880Z,185.93
2023-01-19T14:34:04.557Z,130.43
2023-01-19T14:37:23.272Z,150.80
2023-01-19T14:40:27.940Z,99.30
2023-01-19T14:43:31.795Z,131.73
2023-01-19T14:46:36.848Z,86.80
2023-01-19T14:49:47.537Z,128.57
2023-01-19T14:53:01.774Z,154.75
2023-01-19T14:56:08.165Z,139.48
2023-01-19T14:59:12.843Z,140.18
2023-01-19T15:02:21.878Z,149.65
2023-01-19T15:05:29.514Z,176.85
2023-01-19T15:08:38.223Z,172.55
2023-01-19T15:11:43.157Z,222.68
2023-01-19T15:14:50.186Z,295.05
2023-01-19T15:17:56.396Z,237.50
2023-01-19T15:21:03.546Z,279.75
2023-01-19T15:24:07.902Z,204.23
2023-01-19T15:27:14.642Z,172.27
2023-01-19T15:30:25.579Z,111.50
2023-01-19T15:33:31.414Z,128.23
2023-01-19T15:36:35.891Z,131.00
2023-01-19T15:39:40.544Z,211.07
2023-01-19T15:42:44.995Z,246.73
2023-01-19T15:46:00.234Z,213.95
2023-01-19T15:49:07.037Z,208.55
2023-01-19T15:52:10.739Z,200.85
2023-01-19T15:55:16.800Z,138.98
2023-01-19T15:58:21.401Z,137.60
2023-01-19T16:01:35.501Z,137.13
2023-01-19T16:04:39.404Z,110.28
2023-01-19T16:07:43.915Z,73.50
2023-01-19T16:10:47.842Z,61.45
2023-01-19T16:13:52.445Z,72.03
2023-01-19T16:17:00.655Z,62.53
2023-01-19T16:20:06.634Z,55.53
2023-01-19T16:23:14.941Z,41.03
2023-01-19T16:26:27.107Z,39.92
2023-01-19T16:29:31.890Z,39.33
2023-01-19T16:35:41.156Z,32.85
2023-01-19T16:38:45.499Z,63.30
2023-01-19T16:41:49.317Z,63.88
2023-01-19T16:44:53.940Z,51.50
2023-01-19T16:47:57.979Z,68.07
2023-01-19T16:51:09.421Z,38.15
2023-01-19T16:54:18.904Z,33.08
2023-01-19T16:57:26.091Z,59.25
2023-01-19T17:00:29.949Z,47.17
2023-01-19T17:03:34.264Z,43.65
2023-01-19T17:06:38.578Z,40.05
2023-01-19T17:09:43.246Z,32.75
2023-01-19T17:12:47.114Z,21.43
2023-01-19T17:15:52.090Z,18.97
2023-01-19T17:18:59.107Z,20.27
2023-01-19T17:22:03.472Z,20.23
2023-01-19T17:25:07.781Z,22.13
2023-01-19T17:28:12.583Z,23.08
2023-01-19T17:31:20.054Z,15.83
2023-01-19T17:34:24.509Z,20.10
2023-01-19T17:37:28.671Z,11.45
2023-01-19T17:40:33.039Z,16.83
2023-01-19T17:43:36.836Z,12.27
2023-01-19T17:46:44.312Z,17.93
2023-01-19T17:49:48.306Z,16.60
2023-01-19T17:52:55.969Z,17.98
2023-01-19T17:56:13.996Z,20.08
2023-01-19T17:59:18.457Z,14.68
2023-01-19T18:02:25.085Z,18.17
2023-01-19T18:05:29.499Z,12.70
2023-01-19T18:08:34.679Z,20.98
2023-01-19T18:11:40.841Z,19.58
2023-01-19T18:14:44.612Z,21.85
2023-01-19T18:17:48.989Z,17.75
2023-01-19T18:20:52.955Z,13.27
2023-01-19T18:24:06.010Z,15.90
2023-01-19T18:27:09.848Z,20.73
2023-01-19T18:30:15.174Z,31.17
2023-01-19T18:33:18.960Z,24.92
2023-01-19T18:36:23.340Z,30.02
2023-01-19T18:39:27.374Z,54.17
2023-01-19T18:42:31.837Z,104.18
2023-01-19T18:45:37.694Z,65.13
2023-01-19T18:48:42.362Z,100.22
2023-01-19T18:51:46.151Z,84.47
2023-01-19T18:54:50.635Z,45.38
2023-01-19T18:57:54.620Z,24.70
2023-01-19T19:54:00.097Z,19.17
2023-01-19T19:57:05.039Z,23.35
2023-01-19T20:00:10.387Z,17.85
2023-01-19T20:03:14.904Z,16.27
2023-01-19T20:06:22.765Z,15.57
2023-01-19T20:09:27.024Z,14.85
2023-01-19T20:12:30.949Z,15.13
2023-01-19T20:15:39.286Z,16.90
2023-01-19T20:18:49.316Z,18.83
2023-01-19T20:21:53.526Z,15.00
2023-01-19T20:24:57.557Z,14.00
2023-01-19T20:28:04.139Z,19.03
2023-01-19T20:31:13.393Z,14.73
2023-01-19T20:34:19.846Z,13.32
2023-01-19T20:37:24.136Z,13.27
2023-01-19T20:40:28.484Z,17.40
2023-01-19T20:43:32.633Z,21.27
2023-01-19T20:46:37.154Z,17.00
2023-01-19T20:49:41.275Z,17.40
2023-01-19T20:52:45.548Z,13.30
2023-01-19T20:55:49.943Z,16.27
2023-01-19T20:58:54.511Z,25.15
2023-01-19T21:01:58.881Z,29.55
2023-01-19T21:05:03.124Z,25.90
2023-01-19T21:08:09.858Z,29.83
2023-01-19T21:11:14.082Z,23.98
2023-01-19T21:14:18.130Z,22.30
2023-01-19T21:17:22.303Z,36.80
2023-01-19T21:20:26.439Z,32.03
2023-01-19T21:23:31.115Z,159.88
2023-01-19T21:26:35.290Z,33.65
2023-01-19T21:29:41.508Z,28.83
2023-01-19T21:32:46.017Z,24.05
2023-01-19T21:35:57.115Z,33.28
2023-01-19T21:39:01.870Z,34.40
2023-01-19T21:42:05.931Z,30.80
2023-01-19T21:45:12.828Z,33.72
2023-01-19T21:48:17.989Z,29.10
2023-01-19T21:51:22.534Z,59.75
2023-01-19T21:54:27.344Z,35.97
2023-01-19T21:57:32.143Z,32.08
2023-01-19T22:00:36.209Z,36.35
2023-01-19T22:03:41.803Z,48.67
2023-01-19T22:06:45.826Z,29.90
2023-01-19T22:09:50.739Z,28.83
2023-01-19T22:12:54.728Z,32.00
2023-01-19T22:16:11.818Z,29.40
2023-01-19T22:19:16.141Z,26.23
2023-01-19T22:22:20.933Z,23.75
2023-01-19T22:25:28.648Z,25.35
2023-01-19T22:28:34.390Z,22.83
2023-01-19T22:32:03.708Z,22.73
2023-01-19T22:35:08.130Z,86.18
2023-01-19T22:38:11.931Z,28.43
2023-01-19T22:41:41.719Z,30.63
2023-01-19T22:44:46.564Z,27.08
2023-01-19T22:50:58.506Z,34.30
2023-01-19T22:54:03.033Z,35.85
2023-01-19T22:57:07.711Z,30.33
2023-01-19T23:00:13.376Z,26.63
2023-01-19T23:03:17.542Z,26.25
2023-01-19T23:06:24.928Z,31.77
2023-01-19T23:09:28.801Z,50.05
2023-01-19T23:12:33.195Z,44.60
2023-01-19T23:15:37.077Z,40.03
2023-01-19T23:18:42.409Z,63.43
2023-01-19T23:21:46.657Z,24.67
2023-01-19T23:24:51.077Z,28.17
2023-01-19T23:27:54.861Z,20.98
2023-01-19T23:30:59.254Z,22.88
2023-01-19T23:34:08.573Z,34.65
2023-01-19T23:37:12.980Z,36.03
2023-01-19T23:40:16.967Z,39.60
2023-01-19T23:43:21.318Z,30.73
2023-01-19T23:46:25.160Z,34.25
2023-01-19T23:49:29.623Z,52.30
2023-01-19T23:52:33.487Z,59.97
2023-01-19T23:55:37.870Z,94.07
2023-01-19T23:58:41.791Z,31.67
